This is the latest recevied weather packets stored in our database for station/object KD7CIH. If no packets are shown the sender has not sent any weather packets the latest 10 day(s).
| Time | Temp. | Humidity | Pressure | Rain* | Wind** | Luminosity | Snow |
|---|---|---|---|---|---|---|---|
| 1777805556 | 3.33° C | 51% | 1013.4 hPa | 0 mm | - | - | - |
| 1777805254 | 4.44° C | 49% | 1013.4 hPa | 0 mm | - | - | - |
| 1777804953 | 4.44° C | 48% | 1013.3 hPa | 0 mm | - | - | - |
| 1777804654 | 3.89° C | 51% | 1013.4 hPa | 0 mm | - | - | - |
| 1777804356 | 3.33° C | 53% | 1013.4 hPa | 0 mm | - | - | - |
| 1777804053 | 2.78° C | 55% | 1013.5 hPa | 0 mm | - | - | - |
| 1777803753 | 2.78° C | 55% | 1013.5 hPa | 0 mm | - | - | - |
| 1777803453 | 2.78° C | 54% | 1013.5 hPa | 0 mm | - | - | - |
| 1777803155 | 3.33° C | 52% | 1013.4 hPa | 0 mm | - | - | - |
| 1777802854 | 3.89° C | 51% | 1013.1 hPa | 0 mm | - | - | - |
| 1777802553 | 3.89° C | 51% | 1013.1 hPa | 0 mm | - | - | - |
| 1777802253 | 3.89° C | 50% | 1013 hPa | 0 mm | - | - | - |
| 1777801955 | 4.44° C | 51% | 1013.1 hPa | 0 mm | - | - | - |
| 1777801654 | 4.44° C | 50% | 1013.3 hPa | 0 mm | - | - | - |
| 1777801354 | 5° C | 48% | 1013.1 hPa | 0 mm | - | - | - |
| 1777801053 | 5° C | 47% | 1013 hPa | 0 mm | - | - | - |
| 1777800757 | 5° C | 48% | 1013.3 hPa | 0 mm | - | - | - |
| 1777800452 | 5° C | 48% | 1013.1 hPa | 0 mm | - | - | - |
| 1777800152 | 5° C | 48% | 1013.3 hPa | 0 mm | - | - | - |
| 1777799854 | 5.56° C | 46% | 1013.1 hPa | 0 mm | - | - | - |
| 1777799683 | 5.56° C | 45% | 1013.1 hPa | 0 mm | - | - | - |
| 1777799254 | 5.56° C | 46% | 1013.1 hPa | 0 mm | - | - | - |
| 1777798954 | 5.56° C | 46% | 1013.1 hPa | 0 mm | - | - | - |
| 1777798653 | 5.56° C | 47% | 1013.1 hPa | 0 mm | - | - | - |
| 1777798355 | 5.56° C | 47% | 1013.3 hPa | 0 mm | - | - | - |
* Rain latest hour (hover to see other rain measurements)
** Current wind speed in m/s (hover to see current wind gust speed)